Time;durP1;ratioP1;P1;durP2;ratioP2;P2;SDS_P1;SDS_P2;PMS_P1;PMS_P2;Temp;Humidity;BMP_temperature;BMP_pressure;BME280_temperature;BME280_humidity;BME280_pressure;Samples;Min_cycle;Max_cycle;Signal;HPM_P1;HPM_P2
2022/05/09 00:01:58;;;;;;;10.00;6.28;;;;;;;14.25;98.36;100529.50;6232463;28;20047;-80
2022/05/09 00:04:59;;;;;;;9.97;6.90;;;;;;;14.25;100.00;100531.31;6223337;28;20042;-80
2022/05/09 00:07:59;;;;;;;11.00;6.47;;;;;;;14.24;99.21;100533.06;6206936;28;20771;-80
2022/05/09 00:11:00;;;;;;;9.65;6.25;;;;;;;14.17;98.38;100526.56;6224469;28;20096;-80
2022/05/09 00:14:01;;;;;;;7.13;5.63;;;;;;;14.21;97.76;100528.03;6222744;28;20046;-74
2022/05/09 00:17:02;;;;;;;11.45;6.00;;;;;;;14.19;99.22;100526.47;6206169;28;20057;-74
2022/05/09 00:20:05;;;;;;;8.82;6.25;;;;;;;14.11;98.55;100527.00;6222407;28;20053;-74
2022/05/09 00:23:06;;;;;;;9.65;6.88;;;;;;;14.13;99.93;100526.91;6223822;28;20121;-80
2022/05/09 00:26:07;;;;;;;12.88;8.15;;;;;;;14.14;99.31;100526.75;6222097;28;20041;-80
2022/05/09 00:29:10;;;;;;;7.95;5.80;;;;;;;14.14;98.52;100536.44;6224309;28;20045;-80
2022/05/09 00:32:11;;;;;;;7.85;6.22;;;;;;;14.12;100.00;100539.16;6222896;28;20042;-80
2022/05/09 00:35:13;;;;;;;7.78;6.40;;;;;;;14.10;100.00;100546.28;6190431;28;20517;-80
2022/05/09 00:38:14;;;;;;;8.07;6.07;;;;;;;13.93;100.00;100515.13;6190403;28;20506;-80
2022/05/09 00:44:35;;;;;;;8.93;6.30;;;;;;;13.94;100.00;100535.16;6223705;28;20082;-80
2022/05/09 00:47:35;;;;;;;10.47;6.70;;;;;;;13.89;100.00;100538.91;6206366;28;20049;-80
2022/05/09 00:50:36;;;;;;;7.45;6.60;;;;;;;13.83;100.00;100543.75;6222455;28;20053;-79
2022/05/09 00:53:38;;;;;;;11.23;7.07;;;;;;;13.82;100.00;100534.22;6206189;28;20092;-79
2022/05/09 00:56:50;;;;;;;10.35;6.82;;;;;;;13.82;100.00;100537.66;6222378;28;20065;-73
2022/05/09 00:59:55;;;;;;;8.93;7.07;;;;;;;13.79;100.00;100535.22;6237983;28;20050;-74
2022/05/09 01:03:04;;;;;;;11.27;7.32;;;;;;;13.86;100.00;100541.75;6222887;28;20050;-74
2022/05/09 01:06:05;;;;;;;11.27;6.93;;;;;;;13.89;100.00;100543.34;6221859;28;20041;-74
2022/05/09 01:09:06;;;;;;;10.73;7.18;;;;;;;13.91;100.00;100544.91;6221941;28;20497;-74
2022/05/09 01:12:10;;;;;;;9.68;7.07;;;;;;;13.87;100.00;100545.22;6221864;28;20130;-73
2022/05/09 01:15:15;;;;;;;11.60;7.07;;;;;;;13.86;100.00;100544.38;6221921;28;20105;-74
2022/05/09 01:18:16;;;;;;;9.80;7.47;;;;;;;13.84;100.00;100542.81;6222490;28;20049;-79
2022/05/09 01:21:34;;;;;;;8.13;6.43;;;;;;;13.77;100.00;100549.41;6223249;28;20483;-79
2022/05/09 01:24:35;;;;;;;10.98;6.80;;;;;;;13.68;100.00;100545.63;6221908;28;20038;-73
2022/05/09 01:27:38;;;;;;;9.18;6.82;;;;;;;13.65;100.00;100549.28;6211524;28;20127;-73
2022/05/09 01:30:59;;;;;;;8.48;6.35;;;;;;;13.66;100.00;100543.09;6279261;28;20103;-73
2022/05/09 01:34:01;;;;;;;9.65;6.25;;;;;;;13.61;100.00;100546.94;6247088;28;20050;-73
2022/05/09 01:37:05;;;;;;;9.40;6.43;;;;;;;13.71;100.00;100553.25;6249256;28;20125;-73
2022/05/09 01:40:06;;;;;;;12.15;6.72;;;;;;;13.60;100.00;100542.66;6250333;28;20430;-73
2022/05/09 01:43:08;;;;;;;9.03;6.57;;;;;;;13.59;100.00;100546.19;6249781;28;20049;-74
2022/05/09 01:46:12;;;;;;;8.73;6.10;;;;;;;13.58;100.00;100541.91;6250382;28;20397;-74
2022/05/09 01:49:31;;;;;;;11.45;6.65;;;;;;;13.47;100.00;100535.59;6234087;28;20140;-74
2022/05/09 01:52:32;;;;;;;9.63;6.53;;;;;;;13.57;100.00;100548.09;6250638;28;20095;-73
2022/05/09 01:55:33;;;;;;;9.48;6.50;;;;;;;13.54;100.00;100540.44;6250063;28;20088;-73
2022/05/09 01:58:34;;;;;;;12.05;6.53;;;;;;;13.44;100.00;100545.44;6283665;28;20469;-73
2022/05/09 02:01:44;;;;;;;9.02;6.57;;;;;;;13.52;100.00;100543.16;6233491;28;20119;-73
2022/05/09 02:04:46;;;;;;;9.73;6.30;;;;;;;13.47;100.00;100547.88;6251194;28;20120;-74
2022/05/09 02:07:46;;;;;;;8.80;6.43;;;;;;;13.41;100.00;100546.47;6233883;28;20037;-74
2022/05/09 02:10:47;;;;;;;9.98;6.32;;;;;;;13.42;100.00;100549.94;6217194;28;20478;-74
2022/05/09 02:13:48;;;;;;;13.35;5.82;;;;;;;13.40;100.00;100551.81;6266895;28;20049;-74
2022/05/09 02:16:49;;;;;;;11.90;6.65;;;;;;;13.34;100.00;100554.81;6251134;28;20402;-73
2022/05/09 02:19:49;;;;;;;9.30;6.32;;;;;;;13.27;100.00;100559.59;6201194;28;20045;-79
2022/05/09 02:22:50;;;;;;;7.50;6.20;;;;;;;13.25;100.00;100557.06;6250260;28;20037;-79
2022/05/09 02:25:51;;;;;;;8.43;6.40;;;;;;;13.23;100.00;100556.31;6233659;28;20054;-79
2022/05/09 02:28:52;;;;;;;9.55;6.28;;;;;;;13.21;100.00;100560.81;6283177;28;20125;-79
2022/05/09 02:31:55;;;;;;;9.63;6.25;;;;;;;13.21;100.00;100558.22;6249991;28;20414;-79
2022/05/09 02:34:56;;;;;;;12.98;6.70;;;;;;;13.23;100.00;100561.56;6266851;28;20053;-79
2022/05/09 02:37:57;;;;;;;9.77;6.43;;;;;;;13.19;100.00;100562.69;6250696;28;20060;-74
2022/05/09 02:40:57;;;;;;;9.48;6.43;;;;;;;13.19;100.00;100567.13;6232781;28;20132;-74
2022/05/09 02:43:59;;;;;;;9.00;6.35;;;;;;;13.11;100.00;100564.97;6250002;28;20057;-73
2022/05/09 02:47:00;;;;;;;12.10;6.60;;;;;;;13.17;100.00;100569.81;6247917;28;20463;-74
2022/05/09 02:50:01;;;;;;;8.15;6.32;;;;;;;13.18;100.00;100562.78;6250261;28;20045;-74
2022/05/09 02:53:02;;;;;;;8.82;6.47;;;;;;;13.18;100.00;100568.03;6250232;28;20053;-74
2022/05/09 02:56:04;;;;;;;14.35;6.75;;;;;;;13.07;100.00;100573.97;6248978;28;20045;-73
2022/05/09 02:59:05;;;;;;;;;;;;;;;13.16;100.00;100570.78;6249380;28;20497;-73
2022/05/09 03:02:08;;;;;;;10.73;6.53;;;;;;;13.14;100.00;100577.03;6249954;28;19928;-73
2022/05/09 03:05:09;;;;;;;11.52;7.10;;;;;;;13.11;100.00;100578.06;6282457;28;20054;-79
2022/05/09 03:08:12;;;;;;;11.68;6.63;;;;;;;13.13;100.00;100583.22;6250484;28;20092;-79
2022/05/09 03:11:13;;;;;;;8.15;6.65;;;;;;;13.14;100.00;100587.50;6249101;28;20416;-79
2022/05/09 03:14:14;;;;;;;9.73;7.07;;;;;;;13.13;100.00;100585.84;6249094;28;20049;-79
2022/05/09 03:17:15;;;;;;;12.77;6.90;;;;;;;13.07;100.00;100582.69;6248845;28;20057;-79
2022/05/09 03:20:17;;;;;;;8.18;6.43;;;;;;;13.13;100.00;100581.44;6216064;28;20049;-79
2022/05/09 03:23:18;;;;;;;18.45;6.90;;;;;;;13.16;100.00;100583.00;6232206;28;20156;-79
2022/05/09 03:26:19;;;;;;;12.05;7.00;;;;;;;13.14;100.00;100591.00;6281975;28;20050;-79
2022/05/09 03:29:20;;;;;;;8.80;6.47;;;;;;;13.09;100.00;100585.19;6248788;28;20552;-79
2022/05/09 03:32:21;;;;;;;10.38;6.97;;;;;;;13.09;100.00;100599.16;6249772;28;20047;-79
2022/05/09 03:35:22;;;;;;;11.15;6.88;;;;;;;13.19;100.00;100598.56;6249912;28;20107;-79
2022/05/09 03:38:23;;;;;;;11.50;6.70;;;;;;;13.22;100.00;100596.59;6248297;28;20042;-79
2022/05/09 03:41:24;;;;;;;9.07;7.00;;;;;;;13.25;100.00;100608.66;6249534;28;20048;-79
2022/05/09 03:44:25;;;;;;;12.20;6.30;;;;;;;13.24;100.00;100604.31;6248166;28;20049;-79
2022/05/09 03:47:26;;;;;;;8.65;6.88;;;;;;;13.29;100.00;100608.38;6249607;28;20410;-79
2022/05/09 03:50:29;;;;;;;12.18;7.22;;;;;;;13.37;100.00;100604.44;6248273;28;20118;-79
2022/05/09 03:53:30;;;;;;;10.70;7.38;;;;;;;13.34;100.00;100604.63;6248132;28;20038;-79
2022/05/09 03:56:31;;;;;;;10.50;7.00;;;;;;;13.37;100.00;100609.69;6248063;28;20052;-79
2022/05/09 03:59:32;;;;;;;12.60;7.00;;;;;;;13.43;100.00;100610.13;6248567;28;20136;-73
2022/05/09 04:02:33;;;;;;;12.73;7.38;;;;;;;13.46;100.00;100609.91;6247316;28;20132;-74
2022/05/09 04:05:35;;;;;;;11.98;7.30;;;;;;;13.55;100.00;100610.25;6247296;28;20042;-73
2022/05/09 04:08:36;;;;;;;9.73;7.03;;;;;;;13.59;100.00;100602.13;6247399;28;20041;-73
2022/05/09 04:11:37;;;;;;;9.45;7.10;;;;;;;13.65;100.00;100616.59;6247283;28;20116;-74
2022/05/09 04:17:57;;;;;;;10.63;7.10;;;;;;;13.75;100.00;100611.59;6266294;28;20125;-74
2022/05/09 04:20:58;;;;;;;11.95;7.90;;;;;;;13.82;100.00;100613.72;6214122;28;20049;-74
2022/05/09 04:23:59;;;;;;;11.38;6.63;;;;;;;13.97;100.00;100622.38;6246832;28;20095;-73
2022/05/09 04:27:00;;;;;;;14.95;7.53;;;;;;;13.97;100.00;100619.75;6214419;28;20402;-78
2022/05/09 04:30:01;;;;;;;15.02;7.35;;;;;;;14.04;99.98;100626.28;6248442;28;20050;-78
2022/05/09 04:33:04;;;;;;;13.38;7.15;;;;;;;14.21;100.00;100635.66;6263919;28;20498;-79
2022/05/09 04:36:05;;;;;;;9.23;6.72;;;;;;;14.31;98.92;100625.38;6246862;28;20049;-79
2022/05/09 04:39:06;;;;;;;11.77;6.97;;;;;;;14.32;97.37;100627.88;6230622;28;20052;-79
2022/05/09 04:42:09;;;;;;;12.05;6.75;;;;;;;14.48;98.52;100621.59;6197995;28;20501;-78
2022/05/09 04:45:12;;;;;;;13.32;7.38;;;;;;;14.61;95.65;100625.09;6247054;28;20045;-79
2022/05/09 04:48:13;;;;;;;11.35;6.88;;;;;;;14.73;96.08;100626.03;6214366;28;20478;-79
2022/05/09 04:51:15;;;;;;;9.48;6.68;;;;;;;14.83;94.58;100632.31;6247977;28;20045;-79
2022/05/09 04:54:16;;;;;;;;;;;;;;;14.90;90.85;100637.97;6247378;28;20037;-79
2022/05/09 04:57:17;;;;;;;11.55;6.40;;;;;;;15.01;91.65;100637.22;6247973;28;19999;-79
2022/05/09 05:00:21;;;;;;;10.40;7.10;;;;;;;15.12;92.34;100639.94;6247734;28;20041;-79
2022/05/09 05:03:23;;;;;;;12.77;6.65;;;;;;;15.17;88.25;100635.19;6279708;28;20552;-79
2022/05/09 05:06:23;;;;;;;13.00;7.35;;;;;;;15.32;92.21;100626.22;6229920;28;20095;-79
2022/05/09 05:09:24;;;;;;;11.02;6.57;;;;;;;15.43;86.87;100633.34;6205413;28;20050;-78
2022/05/09 05:12:25;;;;;;;10.27;6.43;;;;;;;15.55;86.32;100622.91;6242701;28;20064;-79
2022/05/09 05:15:27;;;;;;;9.95;5.95;;;;;;;15.69;87.21;100641.16;6243598;28;20042;-78
2022/05/09 05:18:28;;;;;;;10.03;6.20;;;;;;;15.77;87.25;100632.69;6228407;28;20137;-78
2022/05/09 05:21:28;;;;;;;8.85;6.00;;;;;;;15.84;84.01;100639.19;6226855;28;20295;-78
2022/05/09 05:24:33;;;;;;;7.03;5.85;;;;;;;15.88;82.46;100632.75;6234673;28;20414;-73
2022/05/09 05:27:34;;;;;;;9.93;6.25;;;;;;;16.08;84.97;100639.16;6227022;28;20065;-73
2022/05/09 05:30:35;;;;;;;11.40;6.43;;;;;;;16.22;85.09;100635.50;6250228;28;20486;-73
2022/05/09 05:33:36;;;;;;;9.50;6.45;;;;;;;16.30;85.96;100641.84;6254286;28;20064;-73
2022/05/09 05:36:37;;;;;;;8.85;5.85;;;;;;;16.37;82.21;100634.34;6230042;28;20075;-74
2022/05/09 05:39:38;;;;;;;15.45;6.45;;;;;;;16.52;88.59;100643.69;6250889;28;20045;-73
2022/05/09 05:42:41;;;;;;;8.85;5.78;;;;;;;16.62;79.21;100649.09;6225472;28;20054;-73
2022/05/09 05:45:46;;;;;;;7.47;5.70;;;;;;;16.79;77.77;100652.22;6247216;28;20096;-73
2022/05/09 05:48:47;;;;;;;8.88;5.32;;;;;;;16.78;75.12;100653.16;6240894;28;20056;-73
2022/05/09 05:51:48;;;;;;;9.82;5.72;;;;;;;16.93;74.57;100657.28;6239960;28;20372;-79
2022/05/09 05:54:49;;;;;;;8.88;5.03;;;;;;;17.00;74.22;100655.00;6249252;28;20057;-72
2022/05/09 05:57:50;;;;;;;8.82;5.47;;;;;;;17.07;74.22;100661.47;6225544;28;20054;-72
2022/05/09 06:00:50;;;;;;;10.38;5.65;;;;;;;17.14;72.98;100665.31;6241373;28;20172;-72
2022/05/09 06:03:51;;;;;;;8.63;4.72;;;;;;;17.23;71.12;100661.94;6224594;28;20069;-72
2022/05/09 06:06:52;;;;;;;8.93;5.47;;;;;;;17.26;73.38;100660.88;6208416;28;20049;-72
2022/05/09 06:09:53;;;;;;;8.55;4.90;;;;;;;17.33;69.61;100659.41;6224578;28;20099;-74
2022/05/09 06:12:54;;;;;;;6.67;4.93;;;;;;;17.35;69.38;100661.94;6225797;28;20073;-73
2022/05/09 06:15:55;;;;;;;10.90;4.88;;;;;;;17.37;68.53;100662.66;6225521;28;20545;-73
2022/05/09 06:18:56;;;;;;;9.60;4.88;;;;;;;17.49;69.07;100654.59;6225585;28;20041;-73
2022/05/09 06:21:58;;;;;;;7.77;4.90;;;;;;;17.59;69.28;100659.13;6225490;28;20037;-73
2022/05/09 06:24:59;;;;;;;6.27;4.73;;;;;;;17.82;68.45;100671.28;6238227;28;20641;-73
2022/05/09 06:28:01;;;;;;;7.72;4.80;;;;;;;17.85;65.68;100670.22;6214439;28;20310;-73
2022/05/09 06:31:02;;;;;;;6.65;4.65;;;;;;;17.89;65.55;100675.16;6223126;28;20783;-77
2022/05/09 06:34:05;;;;;;;7.18;4.80;;;;;;;17.97;68.72;100677.13;6233525;28;20056;-79
2022/05/09 06:37:06;;;;;;;9.50;4.68;;;;;;;18.17;67.59;100674.66;6232633;28;20144;-78
2022/05/09 06:40:09;;;;;;;7.82;4.53;;;;;;;18.17;66.09;100678.13;6251849;28;20054;-78
2022/05/09 06:43:10;;;;;;;5.82;4.68;;;;;;;18.26;65.24;100674.75;6208102;28;20145;-77
2022/05/09 06:46:12;;;;;;;11.10;5.07;;;;;;;18.37;63.38;100680.94;6200412;28;20053;-74
2022/05/09 06:49:14;;;;;;;10.90;5.22;;;;;;;18.51;64.24;100681.44;6232125;28;20056;-73
2022/05/09 06:52:15;;;;;;;8.60;5.13;;;;;;;18.68;62.70;100687.09;6248445;28;20042;-73
2022/05/09 06:55:16;;;;;;;10.70;4.95;;;;;;;18.73;64.67;100684.88;6248165;28;20053;-74
2022/05/09 06:58:22;;;;;;;13.50;5.40;;;;;;;18.83;62.60;100691.09;6231732;28;20409;-73
2022/05/09 07:01:23;;;;;;;7.00;4.45;;;;;;;18.95;63.17;100691.03;6248170;28;20045;-73
2022/05/09 07:04:24;;;;;;;7.03;4.80;;;;;;;19.08;62.88;100684.50;6215345;28;20043;-73
2022/05/09 07:07:24;;;;;;;9.20;4.90;;;;;;;19.12;64.35;100685.94;6231601;28;20051;-73
2022/05/09 07:10:28;;;;;;;9.88;4.80;;;;;;;19.48;64.57;100688.97;6248426;28;20045;-77
2022/05/09 07:13:30;;;;;;;4.70;4.10;;;;;;;19.57;62.00;100689.13;6248570;28;20049;-78
2022/05/09 07:16:30;;;;;;;10.97;4.80;;;;;;;19.76;60.39;100697.13;6248503;28;20045;-78
2022/05/09 07:19:32;;;;;;;5.75;4.38;;;;;;;19.63;58.87;100689.41;6231735;28;20303;-78
2022/05/09 07:22:32;;;;;;;13.00;5.13;;;;;;;19.70;61.54;100700.28;6232274;28;20537;-78
2022/05/09 07:25:33;;;;;;;8.03;4.43;;;;;;;19.89;59.91;100686.25;6248106;28;20106;-77
2022/05/09 07:28:34;;;;;;;9.23;4.60;;;;;;;20.00;59.01;100698.56;6231678;28;20460;-77
2022/05/09 07:31:35;;;;;;;9.97;4.23;;;;;;;20.16;57.61;100696.19;6248272;28;20048;-78
2022/05/09 07:34:36;;;;;;;5.60;4.00;;;;;;;20.19;56.68;100692.41;6264270;28;20057;-79
2022/05/09 07:37:38;;;;;;;7.73;4.30;;;;;;;20.34;58.17;100693.63;6247890;28;20460;-78
2022/05/09 07:40:40;;;;;;;;;;;;;;;20.46;58.61;100695.16;6248068;28;20052;-78
2022/05/09 07:43:41;;;;;;;10.75;4.32;;;;;;;20.52;55.55;100693.75;6230682;28;19931;-78
2022/05/09 07:46:41;;;;;;;6.63;4.27;;;;;;;20.63;56.22;100693.63;6246202;28;20037;-77
2022/05/09 07:49:43;;;;;;;5.67;3.70;;;;;;;20.81;52.76;100695.53;6196894;28;20121;-78
2022/05/09 07:52:45;;;;;;;5.90;4.45;;;;;;;20.83;52.80;100694.41;6225151;28;20068;-77
2022/05/09 07:55:47;;;;;;;12.32;4.40;;;;;;;20.91;53.47;100694.50;6243866;28;20498;-78
2022/05/09 07:58:47;;;;;;;6.28;3.90;;;;;;;21.02;53.28;100695.31;6206601;28;20046;-78
2022/05/09 08:01:48;;;;;;;8.27;4.00;;;;;;;20.89;50.79;100693.00;6206270;28;20474;-78
2022/05/09 08:04:49;;;;;;;6.33;4.10;;;;;;;21.00;54.68;100692.81;6206119;28;20053;-78
2022/05/09 08:07:50;;;;;;;8.03;4.00;;;;;;;21.14;50.99;100692.31;6189976;28;20430;-78
2022/05/09 08:10:51;;;;;;;5.50;3.80;;;;;;;21.52;51.42;100692.31;6222616;28;20052;-78
2022/05/09 08:13:52;;;;;;;7.97;4.20;;;;;;;21.66;51.28;100696.25;6206410;28;20042;-78
2022/05/09 08:16:54;;;;;;;8.93;3.90;;;;;;;21.92;50.58;100693.69;6223454;28;20418;-78
2022/05/09 08:19:55;;;;;;;8.07;3.70;;;;;;;21.91;50.07;100692.88;6222486;28;20490;-77
2022/05/09 08:23:00;;;;;;;;;;;;;;;22.19;49.17;100695.44;6206547;28;20497;-79
2022/05/09 08:26:03;;;;;;;4.97;3.80;;;;;;;22.27;50.33;100692.88;6235888;28;19925;-78
2022/05/09 08:29:04;;;;;;;6.00;3.70;;;;;;;22.13;48.89;100688.94;6221815;28;20050;-77
2022/05/09 08:32:06;;;;;;;;;;;;;;;22.53;51.97;100687.59;6222641;28;20402;-79
2022/05/09 08:35:08;;;;;;;6.50;3.73;;;;;;;22.53;52.16;100692.06;6223231;28;19928;-78
2022/05/09 08:38:08;;;;;;;;;;;;;;;22.85;49.58;100695.91;6240369;28;20049;-78
2022/05/09 08:41:18;;;;;;;6.78;3.90;;;;;;;22.96;47.86;100695.66;6246329;28;19928;-78
2022/05/09 08:44:29;;;;;;;5.90;3.65;;;;;;;22.73;48.51;100698.00;6245527;28;20057;-78
2022/05/09 08:47:55;;;;;;;4.10;3.27;;;;;;;22.93;46.10;100706.59;6243732;28;20049;-78
2022/05/09 08:51:27;;;;;;;9.32;3.85;;;;;;;23.02;46.93;100711.03;6247554;28;20101;-78
2022/05/09 08:54:28;;;;;;;6.13;3.72;;;;;;;22.82;46.66;100697.06;6246443;28;20045;-77
2022/05/09 08:58:03;;;;;;;6.90;3.97;;;;;;;23.06;45.61;100701.72;6250133;28;20108;-78
2022/05/09 09:01:12;;;;;;;5.45;3.67;;;;;;;23.34;43.90;100702.31;6240451;28;20140;-73
2022/05/09 09:04:21;;;;;;;9.50;3.83;;;;;;;23.09;45.21;100706.72;6245511;28;20100;-73
2022/05/09 09:07:54;;;;;;;5.18;3.40;;;;;;;23.12;46.36;100700.22;6226538;28;20501;-73
2022/05/09 09:11:11;;;;;;;9.25;4.13;;;;;;;23.58;44.47;100708.72;6221295;28;20053;-73
2022/05/09 09:14:31;;;;;;;7.25;3.80;;;;;;;23.73;47.01;100707.09;6221087;28;20414;-73
2022/05/09 09:17:59;;;;;;;8.75;3.90;;;;;;;23.91;46.50;100711.50;6221310;28;20565;-79
2022/05/09 09:21:07;;;;;;;9.25;3.80;;;;;;;24.07;42.84;100700.00;6222570;28;20049;-78
2022/05/09 09:24:41;;;;;;;6.40;3.50;;;;;;;24.14;46.64;100699.16;6221228;28;20050;-79
2022/05/09 09:27:42;;;;;;;5.85;3.33;;;;;;;23.96;45.03;100708.31;6222615;28;20069;-79
2022/05/09 09:30:44;;;;;;;5.43;3.90;;;;;;;24.27;45.66;100693.31;6222344;28;20058;-78
2022/05/09 09:34:06;;;;;;;9.75;3.70;;;;;;;24.57;41.12;100693.69;6254256;28;20050;-79
2022/05/09 09:37:41;;;;;;;10.63;3.55;;;;;;;24.47;43.10;100701.81;6237391;28;20445;-78
2022/05/09 09:40:42;;;;;;;6.07;3.50;;;;;;;24.67;40.09;100693.50;6222086;28;20058;-79
2022/05/09 09:43:43;;;;;;;12.90;3.30;;;;;;;24.12;41.97;100687.00;6204513;28;20064;-79
2022/05/09 09:47:02;;;;;;;6.00;3.70;;;;;;;24.49;41.54;100691.84;6221916;28;20052;-79
2022/05/09 09:50:13;;;;;;;5.80;3.40;;;;;;;24.33;38.63;100694.50;6243571;28;20103;-79
2022/05/09 09:53:34;;;;;;;8.90;3.47;;;;;;;24.85;39.12;100687.94;6246537;28;20062;-78
2022/05/09 09:56:35;;;;;;;7.20;3.60;;;;;;;25.16;40.39;100690.66;6247695;28;20061;-78
2022/05/09 09:59:36;;;;;;;7.13;3.40;;;;;;;25.23;43.06;100688.16;6249934;28;20049;-79
2022/05/09 10:02:37;;;;;;;9.57;3.30;;;;;;;25.21;38.54;100683.00;6233475;28;20045;-79
2022/05/09 10:05:39;;;;;;;8.30;3.28;;;;;;;25.62;37.91;100689.97;6249940;28;20084;-78
2022/05/09 10:08:40;;;;;;;9.60;3.28;;;;;;;25.47;35.33;100693.38;6249728;28;20124;-79
2022/05/09 10:11:41;;;;;;;14.95;3.22;;;;;;;25.22;35.53;100689.97;6250954;28;20383;-78
2022/05/09 10:14:42;;;;;;;6.00;3.20;;;;;;;25.19;39.88;100678.81;6233194;28;20107;-78
2022/05/09 10:17:43;;;;;;;6.15;3.30;;;;;;;25.30;36.74;100679.25;6232922;28;20529;-79
2022/05/09 10:20:48;;;;;;;5.72;3.42;;;;;;;25.43;36.69;100678.72;6233221;28;20049;-78
2022/05/09 10:27:22;;;;;;;7.07;3.13;;;;;;;25.71;38.77;100671.00;6249837;28;20409;-74
2022/05/09 10:30:29;;;;;;;6.50;3.47;;;;;;;25.31;37.71;100672.94;6250026;28;20346;-74
2022/05/09 10:33:40;;;;;;;5.05;3.15;;;;;;;25.18;38.12;100672.63;6248887;28;20485;-73
2022/05/09 10:36:48;;;;;;;7.95;3.67;;;;;;;25.23;37.78;100664.97;6248658;28;20077;-73
2022/05/09 10:40:01;;;;;;;4.65;3.25;;;;;;;25.87;37.39;100679.94;6248598;28;20049;-74
2022/05/09 10:43:09;;;;;;;7.18;3.40;;;;;;;25.86;38.20;100665.75;6249576;28;20049;-73
2022/05/09 10:46:12;;;;;;;3.92;3.00;;;;;;;25.49;36.68;100666.47;6249711;28;20042;-73
2022/05/09 10:49:22;;;;;;;10.82;3.22;;;;;;;26.04;36.53;100657.41;6248344;28;20050;-74
2022/05/09 10:52:43;;;;;;;6.78;3.20;;;;;;;25.49;34.25;100666.47;6248299;28;20195;-74
2022/05/09 10:56:03;;;;;;;9.93;2.87;;;;;;;25.34;35.35;100663.72;6231929;28;20057;-74
2022/05/09 10:59:08;;;;;;;6.72;2.92;;;;;;;25.15;37.34;100659.63;6264725;28;20461;-74
2022/05/09 11:02:31;;;;;;;7.22;3.20;;;;;;;25.43;35.85;100643.13;6249273;28;20107;-74
2022/05/09 11:05:51;;;;;;;7.78;3.20;;;;;;;25.34;34.45;100645.03;6247905;28;20049;-74
2022/05/09 11:09:23;;;;;;;8.98;3.10;;;;;;;24.59;36.19;100651.66;6263855;28;20056;-74
2022/05/09 11:12:36;;;;;;;;;;;;;;;24.41;37.26;100646.47;6231759;28;20077;-73
2022/05/09 11:15:43;;;;;;;7.90;3.20;;;;;;;25.71;34.00;100651.47;6247963;28;20444;-74
2022/05/09 11:19:29;;;;;;;6.60;2.97;;;;;;;26.21;36.99;100643.91;6248856;28;20132;-74
2022/05/09 11:22:59;;;;;;;5.03;2.70;;;;;;;26.18;33.47;100630.91;6247471;28;20079;-73
2022/05/09 11:26:27;;;;;;;9.63;3.05;;;;;;;25.81;36.43;100630.69;6232217;28;20053;-74
2022/05/09 11:29:46;;;;;;;4.40;2.80;;;;;;;25.14;33.32;100623.22;6235946;28;20046;-74
2022/05/09 11:32:55;;;;;;;5.40;2.67;;;;;;;25.08;35.90;100622.13;6234600;28;20057;-74
2022/05/09 11:36:05;;;;;;;7.32;2.53;;;;;;;25.99;34.17;100614.38;6242239;28;20406;-74
2022/05/09 11:39:44;;;;;;;8.43;2.80;;;;;;;26.25;32.93;100621.13;6230491;28;20062;-74
2022/05/09 11:46:42;;;;;;;10.52;3.10;;;;;;;24.62;35.08;100602.47;6223822;28;20044;-75
2022/05/09 11:50:20;;;;;;;5.68;2.80;;;;;;;25.89;35.62;100598.56;6222327;28;20402;-74
2022/05/09 11:53:26;;;;;;;4.18;2.83;;;;;;;26.31;32.02;100593.66;6222475;28;20497;-74
2022/05/09 11:56:31;;;;;;;4.13;2.80;;;;;;;25.91;31.95;100582.38;6238737;28;20050;-74
2022/05/09 11:59:34;;;;;;;3.92;2.47;;;;;;;26.29;31.38;100582.31;6223391;28;20049;-74
2022/05/09 12:02:53;;;;;;;3.75;2.65;;;;;;;26.62;31.77;100582.78;6206028;28;20050;-74
2022/05/09 12:06:02;;;;;;;4.65;3.03;;;;;;;26.91;32.81;100571.25;6230334;28;20070;-74
2022/05/09 12:09:08;;;;;;;4.80;2.92;;;;;;;26.26;31.29;100580.03;6235147;28;20042;-74
2022/05/09 12:12:38;;;;;;;7.90;2.78;;;;;;;25.47;31.79;100583.88;6233620;28;20405;-74
2022/05/09 12:15:48;;;;;;;7.95;2.60;;;;;;;25.16;32.65;100580.34;6262692;28;20494;-73
2022/05/09 12:19:14;;;;;;;4.70;2.58;;;;;;;25.97;31.82;100573.63;6268371;28;20049;-74
2022/05/09 12:22:35;;;;;;;3.60;2.60;;;;;;;26.51;32.64;100572.53;6250914;28;20041;-73
2022/05/09 12:25:36;;;;;;;4.03;2.40;;;;;;;26.79;35.10;100572.75;6222852;28;20048;-74
2022/05/09 12:28:39;;;;;;;4.97;2.67;;;;;;;27.19;30.71;100567.81;6231964;28;20061;-74
2022/05/09 12:31:45;;;;;;;5.63;2.80;;;;;;;26.75;30.84;100558.06;6243681;28;20073;-74
2022/05/09 12:34:47;;;;;;;3.85;2.53;;;;;;;26.64;29.16;100562.03;6232568;28;20049;-74
2022/05/09 12:37:48;;;;;;;3.05;2.33;;;;;;;26.83;28.94;100560.63;6237144;28;20042;-74
2022/05/09 12:41:04;;;;;;;6.55;2.70;;;;;;;27.17;32.85;100558.31;6240907;28;20532;-73
2022/05/09 12:44:22;;;;;;;3.22;2.33;;;;;;;27.12;29.62;100550.88;6257713;28;20140;-74
2022/05/09 12:47:28;;;;;;;5.07;2.20;;;;;;;26.10;29.82;100551.59;6234147;28;20042;-74
2022/05/09 12:50:31;;;;;;;3.72;2.47;;;;;;;25.56;31.26;100549.91;6245542;28;20164;-74
2022/05/09 12:53:35;;;;;;;4.18;2.40;;;;;;;25.27;32.83;100545.28;6229227;28;20053;-74
2022/05/09 12:56:37;;;;;;;6.00;2.30;;;;;;;24.79;33.56;100537.38;6234235;28;20479;-74
2022/05/09 12:59:50;;;;;;;5.25;2.30;;;;;;;25.42;36.78;100538.13;6222270;28;20038;-73
2022/05/09 13:02:51;;;;;;;9.38;2.67;;;;;;;25.90;30.96;100533.44;6220943;28;20469;-73
2022/05/09 13:05:53;;;;;;;9.60;2.78;;;;;;;26.18;30.88;100530.13;6234741;28;20264;-74
2022/05/09 13:08:54;;;;;;;9.48;2.75;;;;;;;25.89;31.16;100526.41;6237368;28;20101;-74
2022/05/09 13:11:57;;;;;;;;;;;;;;;25.64;32.26;100528.44;6244708;28;20049;-74
2022/05/09 13:15:06;;;;;;;4.55;2.50;;;;;;;25.26;32.35;100517.72;6237466;28;19929;-74
2022/05/09 13:18:07;;;;;;;5.32;2.70;;;;;;;24.99;32.20;100504.88;6236816;28;20049;-74
2022/05/09 13:21:09;;;;;;;9.32;2.67;;;;;;;25.46;32.32;100506.56;6226219;28;20526;-74
2022/05/09 13:24:19;;;;;;;2.80;2.30;;;;;;;25.85;32.53;100516.22;6222620;28;20045;-74
2022/05/09 13:27:24;;;;;;;7.35;2.83;;;;;;;26.06;31.33;100512.88;6226645;28;20510;-74
2022/05/09 13:30:25;;;;;;;4.78;2.63;;;;;;;26.03;31.24;100503.38;6248142;28;20053;-75
2022/05/09 13:33:31;;;;;;;4.90;2.70;;;;;;;25.89;33.71;100507.69;6226619;28;20045;-74
2022/05/09 13:36:39;;;;;;;6.45;2.58;;;;;;;25.86;33.06;100500.03;6225688;28;20445;-74
2022/05/09 13:39:45;;;;;;;4.72;2.28;;;;;;;25.99;32.63;100499.41;6226453;28;20049;-74
2022/05/09 13:42:48;;;;;;;3.17;2.33;;;;;;;25.78;31.36;100497.44;6226285;28;20058;-74
2022/05/09 13:45:59;;;;;;;6.65;2.67;;;;;;;25.45;32.11;100491.53;6225148;28;20046;-74
2022/05/09 13:49:03;;;;;;;2.83;2.15;;;;;;;25.12;32.33;100497.94;6225088;28;20069;-73
2022/05/09 13:52:09;;;;;;;5.45;2.13;;;;;;;24.86;32.85;100494.78;6226383;28;20041;-74
2022/05/09 13:55:14;;;;;;;3.00;2.15;;;;;;;25.25;33.60;100500.06;6225035;28;20042;-74
2022/05/09 13:58:21;;;;;;;5.85;2.47;;;;;;;25.42;32.75;100486.56;6224961;28;20053;-74
2022/05/09 14:01:24;;;;;;;7.18;2.55;;;;;;;25.26;31.90;100491.00;6208326;28;20046;-74
2022/05/09 14:04:26;;;;;;;6.40;2.63;;;;;;;25.14;31.80;100481.72;6224854;28;20061;-75
2022/05/09 14:07:40;;;;;;;8.18;2.70;;;;;;;24.88;33.80;100485.59;6225904;28;20096;-74
2022/05/09 14:10:49;;;;;;;6.78;2.53;;;;;;;24.72;34.21;100488.34;6225866;28;20073;-75
2022/05/09 14:13:50;;;;;;;5.90;2.63;;;;;;;24.85;33.96;100479.78;6224502;28;20049;-74
2022/05/09 14:17:00;;;;;;;4.50;2.70;;;;;;;24.87;34.57;100480.41;6208215;28;20052;-74
2022/05/09 14:20:04;;;;;;;12.05;2.42;;;;;;;24.92;34.50;100476.22;6224146;28;20049;-75
2022/05/09 14:23:08;;;;;;;8.57;2.55;;;;;;;24.79;35.27;100480.47;6224583;28;20038;-74
2022/05/09 14:29:43;;;;;;;8.75;2.88;;;;;;;24.64;34.72;100477.72;6224043;28;20054;-74
2022/05/09 14:32:51;;;;;;;9.25;2.72;;;;;;;25.16;34.13;100473.56;6208994;28;20038;-74
2022/05/09 14:35:52;;;;;;;3.10;2.20;;;;;;;25.48;34.38;100465.31;6225669;28;20493;-74